sensor_id;sensor_type;location;lat;lon;timestamp;temperature;humidity
74946;HTU21D;63509;45.250;38.102;2023-05-27T00:01:17;18.98;65.68
74946;HTU21D;63509;45.250;38.102;2023-05-27T00:03:45;18.98;65.70
74946;HTU21D;63509;45.250;38.102;2023-05-27T00:06:11;18.97;65.72
74946;HTU21D;63509;45.250;38.102;2023-05-27T00:08:37;18.98;65.74
74946;HTU21D;63509;45.250;38.102;2023-05-27T00:11:04;18.98;65.75
74946;HTU21D;63509;45.250;38.102;2023-05-27T00:13:30;18.98;65.78
74946;HTU21D;63509;45.250;38.102;2023-05-27T00:15:56;18.98;65.78
74946;HTU21D;63509;45.250;38.102;2023-05-27T00:18:23;18.98;65.79
74946;HTU21D;63509;45.250;38.102;2023-05-27T00:20:49;18.98;65.83
74946;HTU21D;63509;45.250;38.102;2023-05-27T00:23:15;18.98;65.83
74946;HTU21D;63509;45.250;38.102;2023-05-27T00:25:41;18.98;65.84
74946;HTU21D;63509;45.250;38.102;2023-05-27T00:28:07;18.98;65.85
74946;HTU21D;63509;45.250;38.102;2023-05-27T00:30:33;18.99;65.87
74946;HTU21D;63509;45.250;38.102;2023-05-27T00:32:59;18.99;65.88
74946;HTU21D;63509;45.250;38.102;2023-05-27T00:35:25;18.97;65.90
74946;HTU21D;63509;45.250;38.102;2023-05-27T00:37:51;18.97;65.91
74946;HTU21D;63509;45.250;38.102;2023-05-27T00:40:21;18.98;65.92
74946;HTU21D;63509;45.250;38.102;2023-05-27T00:42:48;18.98;65.96
74946;HTU21D;63509;45.250;38.102;2023-05-27T00:45:14;18.97;65.97
74946;HTU21D;63509;45.250;38.102;2023-05-27T00:47:40;18.99;65.99
74946;HTU21D;63509;45.250;38.102;2023-05-27T00:50:07;18.98;66.00
74946;HTU21D;63509;45.250;38.102;2023-05-27T00:52:36;18.96;66.03
74946;HTU21D;63509;45.250;38.102;2023-05-27T00:55:03;18.96;66.04
74946;HTU21D;63509;45.250;38.102;2023-05-27T00:57:29;18.96;66.06
74946;HTU21D;63509;45.250;38.102;2023-05-27T00:59:55;18.96;66.06
74946;HTU21D;63509;45.250;38.102;2023-05-27T01:02:21;18.95;66.11
74946;HTU21D;63509;45.250;38.102;2023-05-27T01:04:48;18.94;66.14
74946;HTU21D;63509;45.250;38.102;2023-05-27T01:07:28;18.94;66.03
74946;HTU21D;63509;45.250;38.102;2023-05-27T01:10:10;18.93;66.08
74946;HTU21D;63509;45.250;38.102;2023-05-27T01:13:06;18.92;65.99
74946;HTU21D;63509;45.250;38.102;2023-05-27T01:15:35;18.89;66.19
74946;HTU21D;63509;45.250;38.102;2023-05-27T01:18:03;18.88;66.22
74946;HTU21D;63509;45.250;38.102;2023-05-27T01:20:30;18.86;66.23
74946;HTU21D;63509;45.250;38.102;2023-05-27T01:22:56;18.85;66.25
74946;HTU21D;63509;45.250;38.102;2023-05-27T01:25:25;18.84;66.29
74946;HTU21D;63509;45.250;38.102;2023-05-27T01:27:51;18.84;66.30
74946;HTU21D;63509;45.250;38.102;2023-05-27T01:30:19;18.85;66.31
74946;HTU21D;63509;45.250;38.102;2023-05-27T01:33:07;18.82;66.27
74946;HTU21D;63509;45.250;38.102;2023-05-27T01:35:46;18.81;66.28
74946;HTU21D;63509;45.250;38.102;2023-05-27T01:38:16;18.82;66.38
74946;HTU21D;63509;45.250;38.102;2023-05-27T01:40:44;18.81;66.43
74946;HTU21D;63509;45.250;38.102;2023-05-27T01:43:13;18.83;66.43
74946;HTU21D;63509;45.250;38.102;2023-05-27T01:45:41;18.82;66.47
74946;HTU21D;63509;45.250;38.102;2023-05-27T01:48:08;18.81;66.49
74946;HTU21D;63509;45.250;38.102;2023-05-27T01:50:38;18.83;66.48
74946;HTU21D;63509;45.250;38.102;2023-05-27T01:53:05;18.82;66.50
74946;HTU21D;63509;45.250;38.102;2023-05-27T01:55:32;18.80;66.53
74946;HTU21D;63509;45.250;38.102;2023-05-27T01:57:58;18.79;66.56
74946;HTU21D;63509;45.250;38.102;2023-05-27T02:00:24;18.78;66.61
74946;HTU21D;63509;45.250;38.102;2023-05-27T02:02:51;18.77;66.63
74946;HTU21D;63509;45.250;38.102;2023-05-27T02:05:18;18.76;66.69
74946;HTU21D;63509;45.250;38.102;2023-05-27T02:07:44;18.76;66.69
74946;HTU21D;63509;45.250;38.102;2023-05-27T02:10:10;18.74;66.72
74946;HTU21D;63509;45.250;38.102;2023-05-27T02:12:37;18.74;66.74
74946;HTU21D;63509;45.250;38.102;2023-05-27T02:15:04;18.73;66.76
74946;HTU21D;63509;45.250;38.102;2023-05-27T02:17:30;18.73;66.81
74946;HTU21D;63509;45.250;38.102;2023-05-27T02:19:56;18.73;66.85
74946;HTU21D;63509;45.250;38.102;2023-05-27T02:22:22;18.73;66.85
74946;HTU21D;63509;45.250;38.102;2023-05-27T02:24:49;18.74;66.86
74946;HTU21D;63509;45.250;38.102;2023-05-27T02:27:15;18.74;66.89
74946;HTU21D;63509;45.250;38.102;2023-05-27T02:29:42;18.77;66.90
74946;HTU21D;63509;45.250;38.102;2023-05-27T02:32:08;18.77;66.92
74946;HTU21D;63509;45.250;38.102;2023-05-27T02:34:34;18.77;66.96
74946;HTU21D;63509;45.250;38.102;2023-05-27T02:37:05;18.79;66.94
74946;HTU21D;63509;45.250;38.102;2023-05-27T02:39:32;18.78;66.99
74946;HTU21D;63509;45.250;38.102;2023-05-27T02:41:58;18.79;67.01
74946;HTU21D;63509;45.250;38.102;2023-05-27T02:44:25;18.80;67.02
74946;HTU21D;63509;45.250;38.102;2023-05-27T02:46:51;18.81;67.04
74946;HTU21D;63509;45.250;38.102;2023-05-27T02:49:17;18.83;67.06
74946;HTU21D;63509;45.250;38.102;2023-05-27T02:51:44;18.83;67.05
74946;HTU21D;63509;45.250;38.102;2023-05-27T02:54:10;18.84;67.09
74946;HTU21D;63509;45.250;38.102;2023-05-27T02:56:36;18.85;67.09
74946;HTU21D;63509;45.250;38.102;2023-05-27T02:59:02;18.86;67.13
74946;HTU21D;63509;45.250;38.102;2023-05-27T03:01:28;18.87;67.14
74946;HTU21D;63509;45.250;38.102;2023-05-27T03:03:54;18.89;67.15
74946;HTU21D;63509;45.250;38.102;2023-05-27T03:06:21;18.88;67.16
74946;HTU21D;63509;45.250;38.102;2023-05-27T03:08:47;18.92;67.18
74946;HTU21D;63509;45.250;38.102;2023-05-27T03:11:13;18.92;67.19
74946;HTU21D;63509;45.250;38.102;2023-05-27T03:13:39;18.95;67.21
74946;HTU21D;63509;45.250;38.102;2023-05-27T03:16:06;18.95;67.24
74946;HTU21D;63509;45.250;38.102;2023-05-27T03:18:32;18.97;67.24
74946;HTU21D;63509;45.250;38.102;2023-05-27T03:20:58;18.99;67.26
74946;HTU21D;63509;45.250;38.102;2023-05-27T03:23:26;19.01;67.27
74946;HTU21D;63509;45.250;38.102;2023-05-27T03:25:52;19.02;67.28
74946;HTU21D;63509;45.250;38.102;2023-05-27T03:28:18;19.06;67.29
74946;HTU21D;63509;45.250;38.102;2023-05-27T03:30:44;19.06;67.30
74946;HTU21D;63509;45.250;38.102;2023-05-27T03:33:23;19.09;67.31
74946;HTU21D;63509;45.250;38.102;2023-05-27T03:35:49;19.12;67.30
74946;HTU21D;63509;45.250;38.102;2023-05-27T03:38:16;19.12;67.30
74946;HTU21D;63509;45.250;38.102;2023-05-27T03:40:43;19.14;67.33
74946;HTU21D;63509;45.250;38.102;2023-05-27T03:43:09;19.14;67.34
74946;HTU21D;63509;45.250;38.102;2023-05-27T03:45:36;19.15;67.36
74946;HTU21D;63509;45.250;38.102;2023-05-27T03:48:02;19.17;67.39
74946;HTU21D;63509;45.250;38.102;2023-05-27T03:50:28;19.20;67.39
74946;HTU21D;63509;45.250;38.102;2023-05-27T03:52:54;19.22;67.40
74946;HTU21D;63509;45.250;38.102;2023-05-27T03:55:21;19.25;67.42
74946;HTU21D;63509;45.250;38.102;2023-05-27T03:57:47;19.27;67.45
74946;HTU21D;63509;45.250;38.102;2023-05-27T04:00:13;19.28;67.45
74946;HTU21D;63509;45.250;38.102;2023-05-27T04:02:51;19.31;67.46
74946;HTU21D;63509;45.250;38.102;2023-05-27T04:05:17;19.36;67.49
74946;HTU21D;63509;45.250;38.102;2023-05-27T04:07:44;19.41;67.54
74946;HTU21D;63509;45.250;38.102;2023-05-27T04:10:10;19.47;67.58
74946;HTU21D;63509;45.250;38.102;2023-05-27T04:12:36;19.53;67.60
74946;HTU21D;63509;45.250;38.102;2023-05-27T04:15:02;19.59;67.59
74946;HTU21D;63509;45.250;38.102;2023-05-27T04:17:30;19.65;67.63
74946;HTU21D;63509;45.250;38.102;2023-05-27T04:19:56;19.73;67.63
74946;HTU21D;63509;45.250;38.102;2023-05-27T04:22:23;19.82;67.65
74946;HTU21D;63509;45.250;38.102;2023-05-27T04:24:50;19.90;67.65
74946;HTU21D;63509;45.250;38.102;2023-05-27T04:27:17;19.99;67.35
74946;HTU21D;63509;45.250;38.102;2023-05-27T04:29:46;20.04;67.55
74946;HTU21D;63509;45.250;38.102;2023-05-27T04:32:15;20.15;67.48
74946;HTU21D;63509;45.250;38.102;2023-05-27T04:34:43;20.24;67.28
74946;HTU21D;63509;45.250;38.102;2023-05-27T04:37:09;20.28;67.41
74946;HTU21D;63509;45.250;38.102;2023-05-27T04:39:36;20.37;67.39
74946;HTU21D;63509;45.250;38.102;2023-05-27T04:42:06;20.47;67.31
74946;HTU21D;63509;45.250;38.102;2023-05-27T04:44:40;20.51;67.15
74946;HTU21D;63509;45.250;38.102;2023-05-27T04:47:06;20.55;67.11
74946;HTU21D;63509;45.250;38.102;2023-05-27T04:49:33;20.60;67.04
74946;HTU21D;63509;45.250;38.102;2023-05-27T04:52:00;20.59;66.89
74946;HTU21D;63509;45.250;38.102;2023-05-27T04:54:27;20.57;66.83
74946;HTU21D;63509;45.250;38.102;2023-05-27T04:56:54;20.56;66.83
74946;HTU21D;63509;45.250;38.102;2023-05-27T04:59:25;20.54;66.84
74946;HTU21D;63509;45.250;38.102;2023-05-27T05:02:15;20.49;66.83
74946;HTU21D;63509;45.250;38.102;2023-05-27T05:05:05;20.48;66.81
74946;HTU21D;63509;45.250;38.102;2023-05-27T05:07:32;20.44;66.87
74946;HTU21D;63509;45.250;38.102;2023-05-27T05:10:08;20.45;66.94
74946;HTU21D;63509;45.250;38.102;2023-05-27T05:12:43;20.47;66.94
74946;HTU21D;63509;45.250;38.102;2023-05-27T05:15:09;20.49;66.99
74946;HTU21D;63509;45.250;38.102;2023-05-27T05:17:36;20.55;67.08
74946;HTU21D;63509;45.250;38.102;2023-05-27T05:20:02;20.65;67.12
74946;HTU21D;63509;45.250;38.102;2023-05-27T05:22:29;20.75;67.06
74946;HTU21D;63509;45.250;38.102;2023-05-27T05:24:55;20.81;66.90
74946;HTU21D;63509;45.250;38.102;2023-05-27T05:27:30;20.86;66.76
74946;HTU21D;63509;45.250;38.102;2023-05-27T05:29:57;20.88;66.67
74946;HTU21D;63509;45.250;38.102;2023-05-27T05:32:23;20.91;66.68
74946;HTU21D;63509;45.250;38.102;2023-05-27T05:34:49;20.96;66.69
74946;HTU21D;63509;45.250;38.102;2023-05-27T05:37:16;21.03;66.76
74946;HTU21D;63509;45.250;38.102;2023-05-27T05:39:44;21.14;66.69
74946;HTU21D;63509;45.250;38.102;2023-05-27T05:42:11;21.20;66.65
74946;HTU21D;63509;45.250;38.102;2023-05-27T05:44:37;21.29;66.58
74946;HTU21D;63509;45.250;38.102;2023-05-27T05:47:05;21.35;66.40
74946;HTU21D;63509;45.250;38.102;2023-05-27T05:49:32;21.42;66.46
74946;HTU21D;63509;45.250;38.102;2023-05-27T05:51:58;21.48;66.37
74946;HTU21D;63509;45.250;38.102;2023-05-27T05:54:25;21.53;66.30
74946;HTU21D;63509;45.250;38.102;2023-05-27T05:56:55;21.60;66.27
74946;HTU21D;63509;45.250;38.102;2023-05-27T05:59:21;21.68;66.27
74946;HTU21D;63509;45.250;38.102;2023-05-27T06:01:48;21.78;66.15
74946;HTU21D;63509;45.250;38.102;2023-05-27T06:04:15;21.84;66.04
74946;HTU21D;63509;45.250;38.102;2023-05-27T06:06:44;21.93;66.03
74946;HTU21D;63509;45.250;38.102;2023-05-27T06:09:29;22.06;65.91
74946;HTU21D;63509;45.250;38.102;2023-05-27T06:11:59;22.13;65.77
74946;HTU21D;63509;45.250;38.102;2023-05-27T06:14:28;22.20;65.66
74946;HTU21D;63509;45.250;38.102;2023-05-27T06:16:57;22.25;65.53
74946;HTU21D;63509;45.250;38.102;2023-05-27T06:19:24;22.29;65.46
74946;HTU21D;63509;45.250;38.102;2023-05-27T06:21:50;22.35;65.45
74946;HTU21D;63509;45.250;38.102;2023-05-27T06:24:28;22.39;65.43
74946;HTU21D;63509;45.250;38.102;2023-05-27T06:27:06;22.43;65.43
74946;HTU21D;63509;45.250;38.102;2023-05-27T06:29:33;22.49;65.40
74946;HTU21D;63509;45.250;38.102;2023-05-27T06:32:00;22.55;65.48
74946;HTU21D;63509;45.250;38.102;2023-05-27T06:34:26;22.64;65.44
74946;HTU21D;63509;45.250;38.102;2023-05-27T06:36:53;22.76;65.38
74946;HTU21D;63509;45.250;38.102;2023-05-27T06:39:19;22.84;65.24
74946;HTU21D;63509;45.250;38.102;2023-05-27T06:41:45;22.90;65.10
74946;HTU21D;63509;45.250;38.102;2023-05-27T06:44:40;22.87;64.95
74946;HTU21D;63509;45.250;38.102;2023-05-27T06:47:12;22.83;64.90
74946;HTU21D;63509;45.250;38.102;2023-05-27T06:49:40;22.82;64.92
74946;HTU21D;63509;45.250;38.102;2023-05-27T06:52:06;22.79;64.93
74946;HTU21D;63509;45.250;38.102;2023-05-27T06:54:44;22.82;65.06
74946;HTU21D;63509;45.250;38.102;2023-05-27T06:57:34;22.90;64.98
74946;HTU21D;63509;45.250;38.102;2023-05-27T07:00:09;22.94;64.96
74946;HTU21D;63509;45.250;38.102;2023-05-27T07:02:44;23.01;64.83
74946;HTU21D;63509;45.250;38.102;2023-05-27T07:05:11;23.09;64.82
74946;HTU21D;63509;45.250;38.102;2023-05-27T07:07:37;23.14;64.68
74946;HTU21D;63509;45.250;38.102;2023-05-27T07:10:03;23.21;64.69
74946;HTU21D;63509;45.250;38.102;2023-05-27T07:12:30;23.34;64.62
74946;HTU21D;63509;45.250;38.102;2023-05-27T07:15:06;23.45;64.42
74946;HTU21D;63509;45.250;38.102;2023-05-27T07:17:34;23.55;64.27
74946;HTU21D;63509;45.250;38.102;2023-05-27T07:20:00;23.67;64.19
74946;HTU21D;63509;45.250;38.102;2023-05-27T07:22:26;23.79;64.04
74946;HTU21D;63509;45.250;38.102;2023-05-27T07:24:52;23.87;63.81
74946;HTU21D;63509;45.250;38.102;2023-05-27T07:27:21;23.92;63.63
74946;HTU21D;63509;45.250;38.102;2023-05-27T07:29:55;23.96;63.57
74946;HTU21D;63509;45.250;38.102;2023-05-27T07:32:36;24.00;63.53
74946;HTU21D;63509;45.250;38.102;2023-05-27T07:35:04;24.05;63.44
74946;HTU21D;63509;45.250;38.102;2023-05-27T07:37:30;24.12;63.36
74946;HTU21D;63509;45.250;38.102;2023-05-27T07:39:56;24.16;63.34
74946;HTU21D;63509;45.250;38.102;2023-05-27T07:42:23;24.23;63.24
74946;HTU21D;63509;45.250;38.102;2023-05-27T07:44:49;24.28;63.08
74946;HTU21D;63509;45.250;38.102;2023-05-27T07:47:16;24.34;63.02
74946;HTU21D;63509;45.250;38.102;2023-05-27T07:49:42;24.39;62.98
74946;HTU21D;63509;45.250;38.102;2023-05-27T07:52:31;24.48;62.92
74946;HTU21D;63509;45.250;38.102;2023-05-27T07:54:58;24.54;62.81
74946;HTU21D;63509;45.250;38.102;2023-05-27T07:57:25;24.60;62.67
74946;HTU21D;63509;45.250;38.102;2023-05-27T07:59:53;24.63;62.58
74946;HTU21D;63509;45.250;38.102;2023-05-27T08:02:21;24.66;62.52
74946;HTU21D;63509;45.250;38.102;2023-05-27T08:04:49;24.72;62.46
74946;HTU21D;63509;45.250;38.102;2023-05-27T08:07:34;24.74;62.31
74946;HTU21D;63509;45.250;38.102;2023-05-27T08:10:21;24.71;62.45
74946;HTU21D;63509;45.250;38.102;2023-05-27T08:13:07;24.69;62.46
74946;HTU21D;63509;45.250;38.102;2023-05-27T08:15:56;24.65;62.35
74946;HTU21D;63509;45.250;38.102;2023-05-27T08:18:30;24.62;62.42
74946;HTU21D;63509;45.250;38.102;2023-05-27T08:21:25;24.65;62.50
74946;HTU21D;63509;45.250;38.102;2023-05-27T08:24:10;24.72;62.51
74946;HTU21D;63509;45.250;38.102;2023-05-27T08:26:56;24.79;62.41
74946;HTU21D;63509;45.250;38.102;2023-05-27T08:29:29;24.85;62.25
74946;HTU21D;63509;45.250;38.102;2023-05-27T08:32:28;24.89;62.17
74946;HTU21D;63509;45.250;38.102;2023-05-27T08:34:55;24.88;62.02
74946;HTU21D;63509;45.250;38.102;2023-05-27T08:37:23;24.88;62.06
74946;HTU21D;63509;45.250;38.102;2023-05-27T08:39:50;24.92;62.06
74946;HTU21D;63509;45.250;38.102;2023-05-27T08:42:34;24.98;61.98
74946;HTU21D;63509;45.250;38.102;2023-05-27T08:45:01;25.03;61.94
74946;HTU21D;63509;45.250;38.102;2023-05-27T08:47:30;25.09;61.84
74946;HTU21D;63509;45.250;38.102;2023-05-27T08:49:56;25.09;61.67
74946;HTU21D;63509;45.250;38.102;2023-05-27T08:52:24;25.07;61.60
74946;HTU21D;63509;45.250;38.102;2023-05-27T08:54:53;25.06;61.66
74946;HTU21D;63509;45.250;38.102;2023-05-27T08:57:20;25.10;61.59
74946;HTU21D;63509;45.250;38.102;2023-05-27T08:59:47;25.16;61.57
74946;HTU21D;63509;45.250;38.102;2023-05-27T09:02:14;25.21;61.53
74946;HTU21D;63509;45.250;38.102;2023-05-27T09:04:41;25.28;61.44
74946;HTU21D;63509;45.250;38.102;2023-05-27T09:07:08;25.37;61.32
74946;HTU21D;63509;45.250;38.102;2023-05-27T09:09:34;25.45;61.28
74946;HTU21D;63509;45.250;38.102;2023-05-27T09:12:04;25.52;61.18
74946;HTU21D;63509;45.250;38.102;2023-05-27T09:14:32;25.60;61.18
74946;HTU21D;63509;45.250;38.102;2023-05-27T09:17:05;25.76;61.11
74946;HTU21D;63509;45.250;38.102;2023-05-27T09:19:31;25.86;60.93
74946;HTU21D;63509;45.250;38.102;2023-05-27T09:21:57;25.99;60.87
74946;HTU21D;63509;45.250;38.102;2023-05-27T09:24:24;26.19;60.73
74946;HTU21D;63509;45.250;38.102;2023-05-27T09:26:51;26.42;60.53
74946;HTU21D;63509;45.250;38.102;2023-05-27T09:29:26;26.67;60.38
74946;HTU21D;63509;45.250;38.102;2023-05-27T09:31:55;26.85;60.05
74946;HTU21D;63509;45.250;38.102;2023-05-27T09:34:22;27.05;59.84
74946;HTU21D;63509;45.250;38.102;2023-05-27T09:36:51;27.30;59.70
74946;HTU21D;63509;45.250;38.102;2023-05-27T09:39:18;27.49;59.30
74946;HTU21D;63509;45.250;38.102;2023-05-27T09:41:55;27.68;59.17
74946;HTU21D;63509;45.250;38.102;2023-05-27T09:44:28;27.81;58.95
74946;HTU21D;63509;45.250;38.102;2023-05-27T09:46:56;27.93;58.70
74946;HTU21D;63509;45.250;38.102;2023-05-27T09:49:25;28.03;58.41
74946;HTU21D;63509;45.250;38.102;2023-05-27T09:51:54;28.03;58.21
74946;HTU21D;63509;45.250;38.102;2023-05-27T09:54:23;28.05;58.10
74946;HTU21D;63509;45.250;38.102;2023-05-27T09:56:49;28.01;57.86
74946;HTU21D;63509;45.250;38.102;2023-05-27T09:59:17;27.94;57.83
74946;HTU21D;63509;45.250;38.102;2023-05-27T10:01:45;27.86;57.77
74946;HTU21D;63509;45.250;38.102;2023-05-27T10:04:14;27.79;57.75
74946;HTU21D;63509;45.250;38.102;2023-05-27T10:06:42;27.71;57.79
74946;HTU21D;63509;45.250;38.102;2023-05-27T10:09:10;27.67;57.79
74946;HTU21D;63509;45.250;38.102;2023-05-27T10:11:40;27.66;57.69
74946;HTU21D;63509;45.250;38.102;2023-05-27T10:14:06;27.61;57.67
74946;HTU21D;63509;45.250;38.102;2023-05-27T10:16:34;27.56;57.62
74946;HTU21D;63509;45.250;38.102;2023-05-27T10:19:00;27.51;57.67
74946;HTU21D;63509;45.250;38.102;2023-05-27T10:21:28;27.49;57.72
74946;HTU21D;63509;45.250;38.102;2023-05-27T10:23:58;27.47;58.17
74946;HTU21D;63509;45.250;38.102;2023-05-27T10:26:36;27.53;58.05
74946;HTU21D;63509;45.250;38.102;2023-05-27T10:29:06;27.57;57.92
74946;HTU21D;63509;45.250;38.102;2023-05-27T10:31:34;27.66;57.65
74946;HTU21D;63509;45.250;38.102;2023-05-27T10:34:05;27.73;57.48
74946;HTU21D;63509;45.250;38.102;2023-05-27T10:36:34;27.76;57.20
74946;HTU21D;63509;45.250;38.102;2023-05-27T10:39:11;27.78;57.27
74946;HTU21D;63509;45.250;38.102;2023-05-27T10:41:42;27.81;57.09
74946;HTU21D;63509;45.250;38.102;2023-05-27T10:44:09;27.80;56.97
74946;HTU21D;63509;45.250;38.102;2023-05-27T10:46:40;27.80;56.98
74946;HTU21D;63509;45.250;38.102;2023-05-27T10:49:13;27.84;56.95
74946;HTU21D;63509;45.250;38.102;2023-05-27T10:51:42;27.84;56.88
74946;HTU21D;63509;45.250;38.102;2023-05-27T10:54:09;27.91;56.74
74946;HTU21D;63509;45.250;38.102;2023-05-27T10:56:36;27.98;56.55
74946;HTU21D;63509;45.250;38.102;2023-05-27T10:59:02;28.06;56.48
74946;HTU21D;63509;45.250;38.102;2023-05-27T11:01:32;28.20;56.55
74946;HTU21D;63509;45.250;38.102;2023-05-27T11:03:59;28.40;56.46
74946;HTU21D;63509;45.250;38.102;2023-05-27T11:06:25;28.71;56.34
74946;HTU21D;63509;45.250;38.102;2023-05-27T11:08:51;29.02;56.02
74946;HTU21D;63509;45.250;38.102;2023-05-27T11:11:17;29.34;55.67
74946;HTU21D;63509;45.250;38.102;2023-05-27T11:13:45;29.71;55.35
74946;HTU21D;63509;45.250;38.102;2023-05-27T11:16:13;29.92;54.97
74946;HTU21D;63509;45.250;38.102;2023-05-27T11:18:41;30.17;54.69
74946;HTU21D;63509;45.250;38.102;2023-05-27T11:21:08;30.44;54.39
74946;HTU21D;63509;45.250;38.102;2023-05-27T11:26:01;30.87;53.52
74946;HTU21D;63509;45.250;38.102;2023-05-27T11:28:27;30.85;53.27
74946;HTU21D;63509;45.250;38.102;2023-05-27T11:31:02;30.79;53.37
74946;HTU21D;63509;45.250;38.102;2023-05-27T11:33:33;30.67;53.29
74946;HTU21D;63509;45.250;38.102;2023-05-27T11:36:06;30.57;53.26
74946;HTU21D;63509;45.250;38.102;2023-05-27T11:38:59;30.52;53.17
74946;HTU21D;63509;45.250;38.102;2023-05-27T11:41:28;30.31;53.00
74946;HTU21D;63509;45.250;38.102;2023-05-27T11:43:59;30.13;53.14
74946;HTU21D;63509;45.250;38.102;2023-05-27T11:46:36;30.05;53.27
74946;HTU21D;63509;45.250;38.102;2023-05-27T11:49:06;29.92;53.31
74946;HTU21D;63509;45.250;38.102;2023-05-27T11:51:56;29.96;53.42
74946;HTU21D;63509;45.250;38.102;2023-05-27T11:54:24;29.91;53.18
74946;HTU21D;63509;45.250;38.102;2023-05-27T11:56:51;29.89;53.07
74946;HTU21D;63509;45.250;38.102;2023-05-27T11:59:18;29.91;53.07
74946;HTU21D;63509;45.250;38.102;2023-05-27T12:01:45;29.91;52.84
74946;HTU21D;63509;45.250;38.102;2023-05-27T12:04:11;29.87;52.74
74946;HTU21D;63509;45.250;38.102;2023-05-27T12:06:37;29.87;52.75
74946;HTU21D;63509;45.250;38.102;2023-05-27T12:09:05;29.90;52.68
74946;HTU21D;63509;45.250;38.102;2023-05-27T12:11:34;30.03;52.71
74946;HTU21D;63509;45.250;38.102;2023-05-27T12:14:01;30.11;52.26
74946;HTU21D;63509;45.250;38.102;2023-05-27T12:16:27;30.11;51.99
74946;HTU21D;63509;45.250;38.102;2023-05-27T12:18:54;30.05;51.98
74946;HTU21D;63509;45.250;38.102;2023-05-27T12:21:20;30.06;51.94
74946;HTU21D;63509;45.250;38.102;2023-05-27T12:23:47;30.06;51.97
74946;HTU21D;63509;45.250;38.102;2023-05-27T12:26:14;30.09;51.95
74946;HTU21D;63509;45.250;38.102;2023-05-27T12:28:41;30.15;51.75
74946;HTU21D;63509;45.250;38.102;2023-05-27T12:31:08;30.10;51.56
74946;HTU21D;63509;45.250;38.102;2023-05-27T12:33:34;30.01;51.64
74946;HTU21D;63509;45.250;38.102;2023-05-27T12:36:01;29.95;51.67
74946;HTU21D;63509;45.250;38.102;2023-05-27T12:38:28;29.92;52.35
74946;HTU21D;63509;45.250;38.102;2023-05-27T12:40:54;29.91;51.99
74946;HTU21D;63509;45.250;38.102;2023-05-27T12:43:22;29.95;51.85
74946;HTU21D;63509;45.250;38.102;2023-05-27T12:45:48;30.01;51.69
74946;HTU21D;63509;45.250;38.102;2023-05-27T12:48:15;30.02;51.54
74946;HTU21D;63509;45.250;38.102;2023-05-27T12:50:41;30.03;51.50
74946;HTU21D;63509;45.250;38.102;2023-05-27T12:53:08;30.05;51.35
74946;HTU21D;63509;45.250;38.102;2023-05-27T12:55:34;29.96;51.28
74946;HTU21D;63509;45.250;38.102;2023-05-27T12:58:01;29.88;51.34
74946;HTU21D;63509;45.250;38.102;2023-05-27T13:00:27;29.88;51.43
74946;HTU21D;63509;45.250;38.102;2023-05-27T13:02:54;29.92;51.36
74946;HTU21D;63509;45.250;38.102;2023-05-27T13:05:20;29.97;51.29
74946;HTU21D;63509;45.250;38.102;2023-05-27T13:08:01;30.08;51.36
74946;HTU21D;63509;45.250;38.102;2023-05-27T13:10:28;30.07;51.01
74946;HTU21D;63509;45.250;38.102;2023-05-27T13:12:55;30.11;50.92
74946;HTU21D;63509;45.250;38.102;2023-05-27T13:15:22;30.10;50.69
74946;HTU21D;63509;45.250;38.102;2023-05-27T13:17:50;30.11;50.78
74946;HTU21D;63509;45.250;38.102;2023-05-27T13:20:17;30.10;50.63
74946;HTU21D;63509;45.250;38.102;2023-05-27T13:22:44;30.03;50.59
74946;HTU21D;63509;45.250;38.102;2023-05-27T13:25:11;29.91;51.21
74946;HTU21D;63509;45.250;38.102;2023-05-27T13:27:41;29.81;51.20
74946;HTU21D;63509;45.250;38.102;2023-05-27T13:30:08;29.74;50.99
74946;HTU21D;63509;45.250;38.102;2023-05-27T13:32:35;29.68;50.96
74946;HTU21D;63509;45.250;38.102;2023-05-27T13:35:01;29.67;50.88
74946;HTU21D;63509;45.250;38.102;2023-05-27T13:37:28;29.66;50.79
74946;HTU21D;63509;45.250;38.102;2023-05-27T13:39:55;29.61;50.69
74946;HTU21D;63509;45.250;38.102;2023-05-27T13:42:21;29.52;50.68
74946;HTU21D;63509;45.250;38.102;2023-05-27T13:44:47;29.43;50.63
74946;HTU21D;63509;45.250;38.102;2023-05-27T13:47:13;29.27;50.61
74946;HTU21D;63509;45.250;38.102;2023-05-27T13:49:39;29.12;50.77
74946;HTU21D;63509;45.250;38.102;2023-05-27T13:52:05;28.98;50.88
74946;HTU21D;63509;45.250;38.102;2023-05-27T13:54:31;28.83;50.92
74946;HTU21D;63509;45.250;38.102;2023-05-27T13:56:57;28.63;51.04
74946;HTU21D;63509;45.250;38.102;2023-05-27T13:59:24;28.45;51.21
74946;HTU21D;63509;45.250;38.102;2023-05-27T14:01:50;28.29;51.32
74946;HTU21D;63509;45.250;38.102;2023-05-27T14:04:16;28.12;51.43
74946;HTU21D;63509;45.250;38.102;2023-05-27T14:06:43;27.96;51.56
74946;HTU21D;63509;45.250;38.102;2023-05-27T14:09:09;27.80;51.66
74946;HTU21D;63509;45.250;38.102;2023-05-27T14:11:35;27.61;51.80
74946;HTU21D;63509;45.250;38.102;2023-05-27T14:14:01;27.47;51.95
74946;HTU21D;63509;45.250;38.102;2023-05-27T14:16:27;27.34;52.05
74946;HTU21D;63509;45.250;38.102;2023-05-27T14:18:54;27.22;52.15
74946;HTU21D;63509;45.250;38.102;2023-05-27T14:21:20;27.14;52.26
74946;HTU21D;63509;45.250;38.102;2023-05-27T14:23:46;27.06;52.33
74946;HTU21D;63509;45.250;38.102;2023-05-27T14:26:12;26.98;52.40
74946;HTU21D;63509;45.250;38.102;2023-05-27T14:28:38;26.91;52.43
74946;HTU21D;63509;45.250;38.102;2023-05-27T14:31:04;26.82;52.45
74946;HTU21D;63509;45.250;38.102;2023-05-27T14:33:31;26.71;52.49
74946;HTU21D;63509;45.250;38.102;2023-05-27T14:35:57;26.58;52.56
74946;HTU21D;63509;45.250;38.102;2023-05-27T14:38:23;26.46;52.69
74946;HTU21D;63509;45.250;38.102;2023-05-27T14:40:49;26.35;52.78
74946;HTU21D;63509;45.250;38.102;2023-05-27T14:43:15;26.26;52.86
74946;HTU21D;63509;45.250;38.102;2023-05-27T14:45:42;26.19;52.94
74946;HTU21D;63509;45.250;38.102;2023-05-27T14:48:08;26.12;53.02
74946;HTU21D;63509;45.250;38.102;2023-05-27T14:50:34;26.07;53.08
74946;HTU21D;63509;45.250;38.102;2023-05-27T14:53:00;26.04;53.12
74946;HTU21D;63509;45.250;38.102;2023-05-27T14:55:26;25.99;53.13
74946;HTU21D;63509;45.250;38.102;2023-05-27T14:57:53;25.95;53.15
74946;HTU21D;63509;45.250;38.102;2023-05-27T15:00:19;25.89;53.14
74946;HTU21D;63509;45.250;38.102;2023-05-27T15:02:45;25.82;53.23
74946;HTU21D;63509;45.250;38.102;2023-05-27T15:05:11;25.75;53.33
74946;HTU21D;63509;45.250;38.102;2023-05-27T15:07:39;25.69;53.37
74946;HTU21D;63509;45.250;38.102;2023-05-27T15:10:06;25.63;53.43
74946;HTU21D;63509;45.250;38.102;2023-05-27T15:12:46;25.58;53.48
74946;HTU21D;63509;45.250;38.102;2023-05-27T15:15:14;25.50;53.58